Flight Track Log - Related Links

Times and Time Zones

All times are in EDT time to prevent confusion due to time zone crossing. See the CSN3452 flight status page for this flight to view local times or setup timezone preferences in your user account.

Time Position Orientation Groundspeed Altitude Reporting Facility
EDT Latitude Longitude Course Direction KTS MPH feet Rate Location/Type
Tue 09:13:00 AM 25.0735 103.0810 102° East  Level Estimated
Tue 09:14:00 AM 25.0449 103.2328 102° East  Level Estimated
Tue 09:15:00 AM 25.0162 103.3845 102° East  Level Estimated
Tue 09:16:00 AM 24.9873 103.5361 102° East  Level Estimated
Tue 09:17:00 AM 24.9583 103.6876 102° East  Level Estimated
Tue 09:18:00 AM 24.9291 103.8391 102° East  Level Estimated
Tue 09:19:00 AM 24.8997 103.9905 102° East  Level Estimated
Tue 09:20:00 AM 24.8702 104.1418 102° East  Level Estimated
Tue 09:21:00 AM 24.8406 104.2931 102° East  Level Estimated
Tue 09:22:00 AM 24.8108 104.4443 102° East  Level Estimated
Tue 09:23:00 AM 24.7808 104.5954 102° East  Level Estimated
Tue 09:24:00 AM 24.7507 104.7465 102° East  Level Estimated
Tue 09:25:00 AM 24.7204 104.8974 102° East  Level Estimated
Tue 09:26:00 AM 24.6900 105.0483 102° East  Level Estimated
Tue 09:27:00 AM 24.6595 105.1991 103° East  Level Estimated
Tue 09:28:00 AM 24.6287 105.3499 103° East  Level Estimated
Tue 09:29:00 AM 24.5979 105.5006 103° East  Level Estimated
Tue 09:30:00 AM 24.5669 105.6512 103° East  Level Estimated
Tue 09:31:00 AM 24.5357 105.8017 103° East  Level Estimated
Tue 09:32:00 AM 24.5044 105.9521 103° East  Level Estimated
Tue 09:33:00 AM 24.4729 106.1025 103° East  Level Estimated
Tue 09:34:00 AM 24.4413 106.2528 103° East  Level Estimated
Tue 09:35:00 AM 24.4096 106.4030 103° East  Level Estimated
Tue 09:36:00 AM 24.3777 106.5532 103° East  Level Estimated
Tue 09:37:00 AM 24.3456 106.7032 103° East  Level Estimated
Tue 09:38:00 AM 24.3134 106.8532 103° East  Level Estimated
Tue 09:39:00 AM 24.2811 107.0032 103° East  Level Estimated
Tue 09:40:00 AM 24.2486 107.1530 103° East  Level Estimated
Tue 09:41:00 AM 24.2159 107.3028 103° East  Level Estimated
Tue 09:42:00 AM 24.1831 107.4525 103° East  Level Estimated
Tue 09:43:00 AM 24.1502 107.6021 104° East  Level Estimated
Tue 09:44:00 AM 24.1171 107.7516 104° East  Level Estimated
Tue 09:45:00 AM 24.0839 107.9011 104° East  Level Estimated
Tue 09:46:00 AM 24.0505 108.0505 104° East  Level Estimated
Tue 09:47:00 AM 24.0170 108.1998 104° East  Level Estimated
Tue 09:48:00 AM 23.9833 108.3490 104° East  Level Estimated
Tue 09:49:00 AM 23.9495 108.4981 104° East  Level Estimated
Tue 09:50:00 AM 23.9156 108.6472 104° East  Level Estimated
Tue 09:51:00 AM 23.8815 108.7962 104° East  Level Estimated
Tue 09:52:00 AM 23.8472 108.9451 104° East  Level Estimated
Tue 09:53:00 AM 23.8129 109.0939 104° East  Level Estimated
Tue 09:54:00 AM 23.7783 109.2427 104° East  Level Estimated
Tue 09:55:00 AM 23.7437 109.3913 104° East  Level Estimated
Tue 09:56:00 AM 23.7089 109.5399 104° East  Level Estimated
Tue 09:57:00 AM 23.6739 109.6885 104° East  Level Estimated
Tue 09:58:00 AM 23.6388 109.8369 104° East  Level Estimated
Tue 09:59:00 AM 23.6036 109.9853 105° East  Level Estimated
Tue 10:00:00 AM 23.5682 110.1335 105° East  Level Estimated
Tue 10:01:00 AM 23.5327 110.2817 105° East  Level Estimated
Tue 10:02:00 AM 23.4971 110.4298 105° East  Level Estimated
Tue 10:03:00 AM 23.4613 110.5779 105° East  Level Estimated
Tue 10:04:00 AM 23.4253 110.7258 105° East  Level Estimated
Tue 10:05:00 AM 23.3893 110.8737 105° East  Level Estimated
Tue 10:06:00 AM 23.3531 111.0215 105° East  Level Estimated
Tue 10:07:00 AM 23.3167 111.1692 105° East  Level Estimated
Tue 10:08:00 AM 23.2802 111.3168 105° East  Level Estimated
Tue 10:09:00 AM 23.2436 111.4644 105° East  Level Estimated
Tue 10:10:00 AM 23.2068 111.6119 105° East  Level Estimated
Tue 10:11:00 AM 23.1699 111.7592 105° East  Level Estimated
Tue 10:12:00 AM 23.1329 111.9066 105° East  Level Estimated
Tue 10:13:00 AM 23.0957 112.0538 105° East  Level Estimated
Tue 10:14:00 AM 23.0584 112.2009 105° East  Level Estimated
Tue 10:15:00 AM 23.0209 112.3480 105° East  Level Estimated
Tue 10:16:00 AM 22.9834 112.4950 105° East  Level Estimated
Tue 10:17:00 AM 22.9456 112.6419 106° East  Level Estimated
Tue 10:18:00 AM 22.9078 112.7887 106° East  Level Estimated
Tue 10:19:00 AM 22.8698 112.9354 106° East  Level Estimated
Tue 10:20:00 AM 22.8316 113.0821 106° East  Level Estimated
Tue 10:21:00 AM 22.7934 113.2286 106° East  Level Estimated
Tue 10:22:00 AM 22.7550 113.3751 106° East  Level Estimated
Tue 10:23:00 AM 22.7165 113.5215 106° East  Level Estimated
Tue 10:24:00 AM 22.6778 113.6679 106° East  Level Estimated
Tue 10:25:00 AM 22.6395 113.8124 106° East  Level Estimated
Tue 10:26:00 AM 22.6395 113.8124 25° Northeast  Level Estimated
Tue 10:27:00 AM 22.6395 113.8124 25° Northeast  Level Estimated
Tue 10:28:00 AM 22.6395 113.8124 25° Northeast  Level Estimated
Tue 10:29:00 AM 22.6395 113.8124 25° Northeast  Level Estimated
Tue 10:30:00 AM 22.6395 113.8124 25° Northeast  Level Estimated
Tue 10:31:00 AM 22.6395 113.8124 25° Northeast  Level Estimated
Tue 10:32:00 AM 22.6395 113.8124 25° Northeast  Level Estimated
Tue 10:33:00 AM 22.6395 113.8124 25° Northeast  Level Estimated

Login

Don't have an account? Register now (free) for customized features, flight alerts, and more!